sensor_id;sensor_type;location;lat;lon;timestamp;pressure;altitude;pressure_sealevel;temperature;humidity
56632;BME280;42503;39.928;-75.152;2023-05-11T00:07:05;101789.06;;;23.32;27.78
56632;BME280;42503;39.928;-75.152;2023-05-11T00:17:07;101790.13;;;23.26;28.55
56632;BME280;42503;39.928;-75.152;2023-05-11T00:27:08;101795.75;;;23.37;29.08
56632;BME280;42503;39.928;-75.152;2023-05-11T00:37:09;101818.06;;;23.37;29.33
56632;BME280;42503;39.928;-75.152;2023-05-11T00:47:11;101815.84;;;23.28;30.35
56632;BME280;42503;39.928;-75.152;2023-05-11T00:57:13;101847.13;;;23.30;31.17
56632;BME280;42503;39.928;-75.152;2023-05-11T01:38:53;101907.44;;;23.26;33.08
56632;BME280;42503;39.928;-75.152;2023-05-11T01:48:55;101930.38;;;23.33;33.61
56632;BME280;42503;39.928;-75.152;2023-05-11T01:59:00;101937.63;;;23.34;33.85
56632;BME280;42503;39.928;-75.152;2023-05-11T02:09:06;101935.97;;;23.39;33.67
56632;BME280;42503;39.928;-75.152;2023-05-11T02:19:12;101940.44;;;23.40;34.16
56632;BME280;42503;39.928;-75.152;2023-05-11T02:29:20;101916.63;;;23.22;34.20
56632;BME280;42503;39.928;-75.152;2023-05-11T02:39:23;101951.06;;;23.43;34.71
56632;BME280;42503;39.928;-75.152;2023-05-11T02:49:30;101934.00;;;23.39;34.69
56632;BME280;42503;39.928;-75.152;2023-05-11T02:59:35;101926.53;;;23.55;34.46
56632;BME280;42503;39.928;-75.152;2023-05-11T03:09:43;101899.13;;;23.52;34.70
56632;BME280;42503;39.928;-75.152;2023-05-11T03:19:45;101924.94;;;23.69;34.94
56632;BME280;42503;39.928;-75.152;2023-05-11T03:29:47;101926.59;;;23.75;34.98
56632;BME280;42503;39.928;-75.152;2023-05-11T03:39:54;101823.03;;;23.09;35.30
56632;BME280;42503;39.928;-75.152;2023-05-11T03:49:57;101811.28;;;22.97;34.93
56632;BME280;42503;39.928;-75.152;2023-05-11T03:59:59;101951.47;;;23.77;35.51
56632;BME280;42503;39.928;-75.152;2023-05-11T04:10:01;101943.91;;;23.77;35.67
56632;BME280;42503;39.928;-75.152;2023-05-11T04:20:03;101944.50;;;23.79;35.33
56632;BME280;42503;39.928;-75.152;2023-05-11T04:30:11;101950.94;;;23.80;35.57
56632;BME280;42503;39.928;-75.152;2023-05-11T04:40:12;101947.00;;;23.81;35.84
56632;BME280;42503;39.928;-75.152;2023-05-11T04:50:14;101951.22;;;23.83;35.74
56632;BME280;42503;39.928;-75.152;2023-05-11T05:00:16;101943.66;;;23.84;35.95
56632;BME280;42503;39.928;-75.152;2023-05-11T05:10:17;101932.19;;;23.86;35.92
56632;BME280;42503;39.928;-75.152;2023-05-11T05:20:18;101889.34;;;23.49;36.20
56632;BME280;42503;39.928;-75.152;2023-05-11T05:30:20;101933.63;;;23.83;36.15
56632;BME280;42503;39.928;-75.152;2023-05-11T05:40:21;101922.97;;;23.85;36.31
56632;BME280;42503;39.928;-75.152;2023-05-11T05:50:23;101918.22;;;23.80;36.26
56632;BME280;42503;39.928;-75.152;2023-05-11T06:00:24;101921.56;;;23.77;36.05
56632;BME280;42503;39.928;-75.152;2023-05-11T06:10:25;101930.53;;;23.84;36.65
56632;BME280;42503;39.928;-75.152;2023-05-11T06:20:27;101889.63;;;23.53;36.59
56632;BME280;42503;39.928;-75.152;2023-05-11T06:30:29;101898.59;;;23.60;36.95
56632;BME280;42503;39.928;-75.152;2023-05-11T06:40:31;101936.13;;;23.84;36.61
56632;BME280;42503;39.928;-75.152;2023-05-11T06:50:32;101938.91;;;23.84;36.79
56632;BME280;42503;39.928;-75.152;2023-05-11T07:00:33;101916.81;;;23.73;36.89
56632;BME280;42503;39.928;-75.152;2023-05-11T07:10:35;101928.03;;;23.83;37.13
56632;BME280;42503;39.928;-75.152;2023-05-11T07:20:36;101925.22;;;23.83;37.27
56632;BME280;42503;39.928;-75.152;2023-05-11T07:30:41;101894.19;;;23.69;37.19
56632;BME280;42503;39.928;-75.152;2023-05-11T07:40:42;101853.84;;;23.45;37.27
56632;BME280;42503;39.928;-75.152;2023-05-11T07:50:44;101911.25;;;23.78;37.19
56632;BME280;42503;39.928;-75.152;2023-05-11T08:00:45;101916.56;;;23.74;37.47
56632;BME280;42503;39.928;-75.152;2023-05-11T08:10:46;101934.69;;;23.77;37.28
56632;BME280;42503;39.928;-75.152;2023-05-11T08:20:48;101937.78;;;23.70;37.39
56632;BME280;42503;39.928;-75.152;2023-05-11T08:30:56;101977.44;;;23.72;37.41
56632;BME280;42503;39.928;-75.152;2023-05-11T08:41:00;101973.28;;;23.70;37.57
56632;BME280;42503;39.928;-75.152;2023-05-11T08:51:02;101973.47;;;23.58;37.86
56632;BME280;42503;39.928;-75.152;2023-05-11T09:01:05;101986.94;;;23.66;37.84
56632;BME280;42503;39.928;-75.152;2023-05-11T09:11:12;101982.47;;;23.65;37.95
56632;BME280;42503;39.928;-75.152;2023-05-11T09:21:15;101987.72;;;23.62;38.02
56632;BME280;42503;39.928;-75.152;2023-05-11T09:31:42;101982.41;;;23.55;38.01
56632;BME280;42503;39.928;-75.152;2023-05-11T09:41:46;101982.44;;;23.60;37.97
56632;BME280;42503;39.928;-75.152;2023-05-11T09:51:59;101986.59;;;23.57;38.26
56632;BME280;42503;39.928;-75.152;2023-05-11T10:12:23;102002.53;;;23.57;38.19
56632;BME280;42503;39.928;-75.152;2023-05-11T10:22:27;102009.53;;;23.59;38.50
56632;BME280;42503;39.928;-75.152;2023-05-11T10:32:30;102022.06;;;23.52;38.58
56632;BME280;42503;39.928;-75.152;2023-05-11T10:52:54;102045.56;;;23.61;38.34
56632;BME280;42503;39.928;-75.152;2023-05-11T11:03:09;102053.34;;;23.54;38.70
56632;BME280;42503;39.928;-75.152;2023-05-11T11:13:14;102057.81;;;23.50;38.74
56632;BME280;42503;39.928;-75.152;2023-05-11T11:23:39;102060.84;;;23.43;39.18
56632;BME280;42503;39.928;-75.152;2023-05-11T11:33:41;102062.25;;;23.46;39.02
56632;BME280;42503;39.928;-75.152;2023-05-11T11:43:43;102057.22;;;23.43;39.42
56632;BME280;42503;39.928;-75.152;2023-05-11T12:14:08;102068.06;;;23.34;39.10
56632;BME280;42503;39.928;-75.152;2023-05-11T12:24:10;102074.78;;;23.38;38.98
56632;BME280;42503;39.928;-75.152;2023-05-11T12:34:18;102091.88;;;23.47;39.24
56632;BME280;42503;39.928;-75.152;2023-05-11T12:44:25;102089.59;;;23.39;39.10
56632;BME280;42503;39.928;-75.152;2023-05-11T12:54:36;102094.59;;;23.37;39.36
56632;BME280;42503;39.928;-75.152;2023-05-11T13:04:39;102098.53;;;23.41;39.46
56632;BME280;42503;39.928;-75.152;2023-05-11T13:14:45;102096.56;;;23.41;39.39
56632;BME280;42503;39.928;-75.152;2023-05-11T13:24:47;102076.75;;;23.38;39.05
56632;BME280;42503;39.928;-75.152;2023-05-11T13:34:50;102069.75;;;23.40;39.32
56632;BME280;42503;39.928;-75.152;2023-05-11T13:44:52;102071.25;;;23.53;39.07
56632;BME280;42503;39.928;-75.152;2023-05-11T13:54:53;102064.47;;;23.44;39.21
56632;BME280;42503;39.928;-75.152;2023-05-11T14:04:54;102067.31;;;23.49;38.49
56632;BME280;42503;39.928;-75.152;2023-05-11T14:14:56;102032.59;;;23.34;37.86
56632;BME280;42503;39.928;-75.152;2023-05-11T14:24:57;102055.59;;;23.52;38.61
56632;BME280;42503;39.928;-75.152;2023-05-11T14:34:58;102044.44;;;23.57;38.33
56632;BME280;42503;39.928;-75.152;2023-05-11T14:45:00;102024.88;;;23.57;37.89
56632;BME280;42503;39.928;-75.152;2023-05-11T14:55:01;102030.00;;;23.70;38.23
56632;BME280;42503;39.928;-75.152;2023-05-11T15:05:06;102012.59;;;23.63;38.13
56632;BME280;42503;39.928;-75.152;2023-05-11T15:15:07;102014.06;;;23.71;38.03
56632;BME280;42503;39.928;-75.152;2023-05-11T15:25:09;102004.25;;;23.68;37.94
56632;BME280;42503;39.928;-75.152;2023-05-11T15:35:10;101988.63;;;23.72;37.77
56632;BME280;42503;39.928;-75.152;2023-05-11T15:45:12;101985.28;;;23.70;37.40
56632;BME280;42503;39.928;-75.152;2023-05-11T15:55:13;101977.75;;;23.86;37.04
56632;BME280;42503;39.928;-75.152;2023-05-11T16:05:15;101967.41;;;23.87;37.18
56632;BME280;42503;39.928;-75.152;2023-05-11T16:15:16;101951.22;;;23.94;37.27
56632;BME280;42503;39.928;-75.152;2023-05-11T16:25:18;101942.56;;;23.90;36.88
56632;BME280;42503;39.928;-75.152;2023-05-11T16:35:19;101935.00;;;23.96;37.21
56632;BME280;42503;39.928;-75.152;2023-05-11T16:45:21;101911.25;;;23.93;37.33
56632;BME280;42503;39.928;-75.152;2023-05-11T16:55:22;101888.34;;;23.96;37.00
56632;BME280;42503;39.928;-75.152;2023-05-11T17:05:24;101887.75;;;24.09;36.93
56632;BME280;42503;39.928;-75.152;2023-05-11T17:15:28;101809.22;;;23.65;36.71
56632;BME280;42503;39.928;-75.152;2023-05-11T17:25:29;101861.50;;;24.16;36.56
56632;BME280;42503;39.928;-75.152;2023-05-11T17:35:32;101864.56;;;24.24;36.23
56632;BME280;42503;39.928;-75.152;2023-05-11T17:45:33;101849.44;;;24.25;36.38
56632;BME280;42503;39.928;-75.152;2023-05-11T17:55:38;101838.81;;;24.27;35.80
56632;BME280;42503;39.928;-75.152;2023-05-11T18:05:42;101847.19;;;24.32;35.92
56632;BME280;42503;39.928;-75.152;2023-05-11T18:15:47;101804.16;;;24.13;36.13
56632;BME280;42503;39.928;-75.152;2023-05-11T18:25:49;101831.28;;;24.38;35.45
56632;BME280;42503;39.928;-75.152;2023-05-11T18:35:50;101828.75;;;24.37;34.59
56632;BME280;42503;39.928;-75.152;2023-05-11T18:45:52;101814.50;;;24.33;34.27
56632;BME280;42503;39.928;-75.152;2023-05-11T18:55:53;101673.38;;;23.59;34.11
56632;BME280;42503;39.928;-75.152;2023-05-11T19:05:58;101792.38;;;24.37;34.26
56632;BME280;42503;39.928;-75.152;2023-05-11T19:16:02;101777.00;;;24.39;34.83
56632;BME280;42503;39.928;-75.152;2023-05-11T19:26:06;101761.03;;;24.45;34.79
56632;BME280;42503;39.928;-75.152;2023-05-11T19:36:08;101740.31;;;24.46;35.68
56632;BME280;42503;39.928;-75.152;2023-05-11T19:46:13;101722.97;;;24.49;36.12
56632;BME280;42503;39.928;-75.152;2023-05-11T19:56:14;101726.88;;;24.53;34.49
56632;BME280;42503;39.928;-75.152;2023-05-11T20:06:15;101707.81;;;24.55;36.00
56632;BME280;42503;39.928;-75.152;2023-05-11T20:16:17;101694.41;;;24.57;35.50
56632;BME280;42503;39.928;-75.152;2023-05-11T20:26:21;101691.59;;;24.57;35.43
56632;BME280;42503;39.928;-75.152;2023-05-11T20:36:28;101690.16;;;24.59;35.86
56632;BME280;42503;39.928;-75.152;2023-05-11T20:46:30;101696.88;;;24.64;35.92
56632;BME280;42503;39.928;-75.152;2023-05-11T20:56:36;101660.84;;;24.52;35.88
56632;BME280;42503;39.928;-75.152;2023-05-11T21:06:38;101686.50;;;24.64;35.11
56632;BME280;42503;39.928;-75.152;2023-05-11T21:16:42;101685.94;;;24.67;35.46
56632;BME280;42503;39.928;-75.152;2023-05-11T21:26:47;101684.78;;;24.73;35.34
56632;BME280;42503;39.928;-75.152;2023-05-11T21:36:48;101704.38;;;24.73;35.36
56632;BME280;42503;39.928;-75.152;2023-05-11T21:46:50;101683.06;;;24.77;35.25
56632;BME280;42503;39.928;-75.152;2023-05-11T21:56:51;101682.81;;;24.79;35.10
56632;BME280;42503;39.928;-75.152;2023-05-11T22:06:55;101642.91;;;24.58;34.93
56632;BME280;42503;39.928;-75.152;2023-05-11T22:16:57;101667.75;;;24.70;34.74
56632;BME280;42503;39.928;-75.152;2023-05-11T22:26:58;101679.72;;;24.80;34.58
56632;BME280;42503;39.928;-75.152;2023-05-11T22:37:01;101683.63;;;24.79;34.69
56632;BME280;42503;39.928;-75.152;2023-05-11T22:47:03;101679.19;;;24.73;34.95
56632;BME280;42503;39.928;-75.152;2023-05-11T22:57:05;101676.94;;;24.75;34.63
56632;BME280;42503;39.928;-75.152;2023-05-11T23:07:06;101680.28;;;24.77;34.44
56632;BME280;42503;39.928;-75.152;2023-05-11T23:17:08;101688.63;;;24.82;34.92
56632;BME280;42503;39.928;-75.152;2023-05-11T23:27:09;101690.88;;;24.85;35.24
56632;BME280;42503;39.928;-75.152;2023-05-11T23:37:10;101695.34;;;24.87;34.95
56632;BME280;42503;39.928;-75.152;2023-05-11T23:47:11;101692.25;;;24.88;35.27
56632;BME280;42503;39.928;-75.152;2023-05-11T23:57:16;101683.31;;;24.86;35.12
